Time;durP1;ratioP1;P1;durP2;ratioP2;P2;SDS_P1;SDS_P2;PMS_P1;PMS_P2;Temp;Humidity;BMP_temperature;BMP_pressure;BME280_temperature;BME280_humidity;BME280_pressure;Samples;Min_cycle;Max_cycle;Signal;HPM_P1;HPM_P2
2023/01/01 00:00:43;;;;;;;17.63;15.87;;;;;;;4.04;98.49;94177.78;5090659;28;20212;-74
2023/01/01 00:03:09;;;;;;;37.70;24.00;;;;;;;3.88;99.20;94170.44;5091496;28;20204;-73
2023/01/01 00:05:37;;;;;;;87.17;41.57;;;;;;;3.99;98.46;94172.44;5089646;28;20220;-73
2023/01/01 00:08:03;;;;;;;98.30;39.73;;;;;;;3.89;98.49;94169.44;5090674;28;20219;-74
2023/01/01 00:10:28;;;;;;;119.80;51.93;;;;;;;4.09;97.97;94187.53;5089730;28;20224;-73
2023/01/01 00:12:55;;;;;;;121.87;47.47;;;;;;;3.98;98.41;94181.19;5089974;28;20192;-73
2023/01/01 00:15:20;;;;;;;133.90;50.10;;;;;;;3.90;98.55;94171.03;5091217;28;20220;-73
2023/01/01 00:17:45;;;;;;;131.43;47.07;;;;;;;4.04;97.65;94197.66;5090112;28;20200;-74
2023/01/01 00:20:11;;;;;;;77.77;33.37;;;;;;;3.97;98.17;94187.31;5090212;28;20212;-74
2023/01/01 00:22:37;;;;;;;54.00;28.03;;;;;;;3.91;98.91;94187.31;5092026;28;20176;-73
2023/01/01 00:25:04;;;;;;;45.63;25.13;;;;;;;3.93;98.77;94183.56;5092686;28;20228;-73
2023/01/01 00:27:29;;;;;;;30.67;20.00;;;;;;;3.96;98.55;94192.69;5091043;28;20249;-73
2023/01/01 00:29:54;;;;;;;34.17;19.60;;;;;;;3.82;98.61;94173.81;5090514;28;20216;-73
2023/01/01 00:32:20;;;;;;;24.73;18.23;;;;;;;3.86;98.69;94184.56;5090599;28;20199;-73
2023/01/01 00:34:45;;;;;;;268.63;94.50;;;;;;;4.00;98.55;94196.47;5090547;28;20311;-73
2023/01/01 00:37:10;;;;;;;242.37;95.53;;;;;;;4.08;97.45;94204.00;5089783;28;20193;-74
2023/01/01 00:39:36;;;;;;;104.00;46.30;;;;;;;3.91;97.47;94182.16;5089698;28;20280;-74
2023/01/01 00:42:01;;;;;;;66.33;33.43;;;;;;;3.99;97.61;94200.03;5090245;28;20193;-73
2023/01/01 00:44:27;;;;;;;58.90;32.53;;;;;;;4.03;97.89;94188.31;5089616;28;20213;-74
2023/01/01 00:46:52;;;;;;;69.93;39.37;;;;;;;4.02;97.73;94200.44;5090879;28;20181;-73
2023/01/01 00:49:18;;;;;;;51.80;31.87;;;;;;;3.87;97.38;94192.13;5091785;28;20231;-73
2023/01/01 00:51:43;;;;;;;27.23;22.03;;;;;;;3.83;98.15;94195.28;5089106;28;20197;-73
2023/01/01 00:54:08;;;;;;;34.10;24.47;;;;;;;3.94;98.02;94199.88;5089613;28;20233;-73
2023/01/01 00:56:34;;;;;;;23.93;18.97;;;;;;;3.85;97.92;94199.25;5089372;28;20195;-73
2023/01/01 00:58:59;;;;;;;19.67;17.60;;;;;;;3.75;98.85;94196.25;5089143;28;20188;-73
2023/01/01 01:01:25;;;;;;;17.70;15.90;;;;;;;3.77;99.01;94201.22;5089052;28;20199;-73
2023/01/01 01:03:51;;;;;;;16.60;15.00;;;;;;;3.79;99.00;94202.63;5089213;28;20219;-73
2023/01/01 01:06:17;;;;;;;15.30;13.97;;;;;;;3.63;98.91;94190.09;5090631;28;20176;-73
2023/01/01 01:08:44;;;;;;;16.43;14.87;;;;;;;3.63;99.51;94195.25;5088018;28;20181;-73
2023/01/01 01:11:14;;;;;;;14.87;13.67;;;;;;;3.53;99.93;94186.31;5090623;28;20201;-73
2023/01/01 01:13:40;;;;;;;14.47;13.17;;;;;;;3.57;100.00;94188.31;5088561;28;20193;-73
2023/01/01 01:16:10;;;;;;;16.60;15.20;;;;;;;3.55;100.00;94197.25;5088900;28;20209;-73
2023/01/01 01:18:36;;;;;;;18.10;16.27;;;;;;;3.62;99.84;94187.72;5089508;28;20208;-73
2023/01/01 01:21:01;;;;;;;16.97;15.37;;;;;;;3.57;100.00;94190.09;5088631;28;20232;-74
2023/01/01 01:23:26;;;;;;;14.97;13.60;;;;;;;3.61;100.00;94193.88;5089897;28;20204;-73
2023/01/01 01:25:52;;;;;;;14.43;13.17;;;;;;;3.55;99.56;94192.09;5088993;28;20246;-73
2023/01/01 01:28:17;;;;;;;14.10;13.00;;;;;;;3.60;99.66;94194.84;5088505;28;20197;-73
2023/01/01 01:30:42;;;;;;;12.67;11.77;;;;;;;3.53;99.57;94189.72;5088939;28;20254;-73
2023/01/01 01:33:08;;;;;;;12.87;12.03;;;;;;;3.65;99.57;94182.97;5089441;28;20195;-73
2023/01/01 01:35:33;;;;;;;12.37;11.27;;;;;;;3.58;99.46;94181.38;5089166;28;20212;-73
2023/01/01 01:37:59;;;;;;;12.57;11.77;;;;;;;3.44;99.77;94172.78;5090212;28;20195;-73
2023/01/01 01:40:25;;;;;;;12.20;11.30;;;;;;;3.39;100.00;94167.44;5091238;28;20238;-73
2023/01/01 01:42:50;;;;;;;12.40;11.57;;;;;;;3.58;99.58;94179.56;5088960;28;20181;-73
2023/01/01 01:45:16;;;;;;;11.83;11.03;;;;;;;3.68;100.00;94182.56;5088202;28;20213;-75
2023/01/01 01:47:52;;;;;;;13.60;12.60;;;;;;;3.57;99.71;94172.81;5090007;28;20177;-73
2023/01/01 01:50:24;;;;;;;13.60;12.50;;;;;;;3.59;100.00;94188.13;5088653;28;20232;-73
2023/01/01 01:53:04;;;;;;;13.73;12.67;;;;;;;3.49;100.00;94188.50;5089816;28;20209;-73
2023/01/01 01:55:33;;;;;;;14.17;12.97;;;;;;;3.54;100.00;94180.16;5088495;28;20219;-74
2023/01/01 01:57:58;;;;;;;14.77;13.57;;;;;;;3.64;100.00;94176.22;5088767;28;20199;-73
2023/01/01 02:00:24;;;;;;;14.17;13.07;;;;;;;3.46;100.00;94162.28;5088152;28;20232;-73
2023/01/01 02:02:56;;;;;;;14.33;13.23;;;;;;;3.61;100.00;94175.81;5090652;28;20195;-74
2023/01/01 02:05:23;;;;;;;13.60;12.60;;;;;;;3.52;100.00;94177.78;5088347;28;20303;-73
2023/01/01 02:07:50;;;;;;;12.67;11.77;;;;;;;3.60;100.00;94174.19;5088489;28;20197;-73
2023/01/01 02:10:15;;;;;;;14.23;12.97;;;;;;;3.58;100.00;94179.56;5088364;28;20243;-73
2023/01/01 02:12:41;;;;;;;13.50;12.37;;;;;;;3.55;100.00;94194.69;5088435;28;20226;-74
2023/01/01 02:15:08;;;;;;;12.77;11.83;;;;;;;3.62;100.00;94190.28;5088711;28;20260;-73
2023/01/01 02:17:41;;;;;;;12.50;11.63;;;;;;;3.51;100.00;94190.88;5089142;28;20181;-74
2023/01/01 02:20:15;;;;;;;12.53;11.63;;;;;;;3.47;100.00;94211.13;5089598;28;20227;-73
2023/01/01 02:22:43;;;;;;;13.10;12.20;;;;;;;3.49;100.00;94206.56;5088863;28;20177;-73
2023/01/01 02:25:27;;;;;;;13.17;12.07;;;;;;;3.39;100.00;94203.59;5087564;28;20232;-74
2023/01/01 02:28:30;;;;;;;14.33;13.23;;;;;;;3.49;100.00;94203.22;5086674;28;20211;-74
2023/01/01 02:30:58;;;;;;;16.03;14.63;;;;;;;3.39;100.00;94198.44;5088597;28;20251;-74
2023/01/01 02:33:25;;;;;;;15.53;14.33;;;;;;;3.20;100.00;94188.84;5087573;28;20313;-73
2023/01/01 02:35:55;;;;;;;16.83;15.10;;;;;;;3.26;100.00;94198.38;5093160;28;20228;-73
2023/01/01 02:38:30;;;;;;;18.03;16.33;;;;;;;3.26;100.00;94182.91;5092441;28;20203;-73
2023/01/01 02:41:03;;;;;;;23.70;18.40;;;;;;;3.28;100.00;94184.28;5094165;28;20219;-74
2023/01/01 02:43:29;;;;;;;20.50;18.40;;;;;;;3.28;100.00;94183.50;5092204;28;20224;-73
2023/01/01 02:45:55;;;;;;;23.67;18.33;;;;;;;3.25;100.00;94181.31;5093163;28;20224;-73
2023/01/01 02:49:14;;;;;;;18.47;16.53;;;;;;;3.30;100.00;94184.09;5094671;28;20230;-74
2023/01/01 02:51:58;;;;;;;15.27;13.57;;;;;;;3.25;100.00;94183.91;5058119;28;20202;-74
2023/01/01 02:54:26;;;;;;;16.33;14.93;;;;;;;3.43;100.00;94189.28;5056750;28;20375;-73
2023/01/01 02:57:45;;;;;;;17.37;14.00;;;;;;;3.34;100.00;94185.31;5060406;28;20189;-73
2023/01/01 03:00:27;;;;;;;17.70;15.67;;;;;;;3.28;100.00;94181.69;4962976;29;20229;-73
2023/01/01 03:03:22;;;;;;;20.47;18.27;;;;;;;3.30;100.00;94181.50;5048651;28;20264;-74
2023/01/01 03:06:23;;;;;;;23.60;17.33;;;;;;;3.35;100.00;94176.56;5057895;28;20263;-74
2023/01/01 03:08:49;;;;;;;25.50;17.70;;;;;;;3.37;100.00;94172.00;5051051;28;20472;-73
2023/01/01 03:11:18;;;;;;;19.40;16.20;;;;;;;3.29;100.00;94173.00;5058100;28;20208;-74
2023/01/01 03:13:51;;;;;;;19.33;17.57;;;;;;;3.29;100.00;94177.34;5059041;28;20241;-73
2023/01/01 03:16:45;;;;;;;17.17;15.47;;;;;;;3.37;100.00;94179.75;5040575;28;20196;-74
2023/01/01 03:19:18;;;;;;;19.70;16.17;;;;;;;3.30;100.00;94163.44;5056000;28;20234;-74
2023/01/01 03:21:50;;;;;;;15.80;14.17;;;;;;;3.35;100.00;94186.88;5061077;28;20211;-74
2023/01/01 03:24:21;;;;;;;13.43;12.40;;;;;;;3.34;100.00;94180.13;5058246;28;20240;-74
2023/01/01 03:26:51;;;;;;;17.17;15.43;;;;;;;3.33;100.00;94188.09;5050871;28;20182;-74
2023/01/01 03:29:17;;;;;;;15.17;13.57;;;;;;;3.24;100.00;94182.28;5053202;28;20230;-73
2023/01/01 03:31:47;;;;;;;15.17;13.90;;;;;;;3.25;100.00;94192.41;5057926;28;20222;-74
2023/01/01 03:34:22;;;;;;;14.87;13.60;;;;;;;3.17;100.00;94179.72;5060704;28;20249;-74
2023/01/01 03:36:55;;;;;;;14.20;13.07;;;;;;;3.29;100.00;94179.94;5070844;28;20187;-73
2023/01/01 03:39:28;;;;;;;17.43;13.77;;;;;;;3.22;100.00;94177.31;5071306;28;20284;-73
2023/01/01 03:42:16;;;;;;;18.60;15.13;;;;;;;3.18;100.00;94173.56;5070102;28;20231;-73
2023/01/01 03:44:50;;;;;;;15.03;13.53;;;;;;;3.17;100.00;94168.59;5068682;28;20243;-74
2023/01/01 03:47:17;;;;;;;15.50;14.10;;;;;;;3.21;100.00;94180.91;5072418;28;20197;-74
2023/01/01 03:49:43;;;;;;;14.93;13.73;;;;;;;3.13;100.00;94170.75;5070530;28;20494;-74
2023/01/01 03:52:20;;;;;;;15.57;14.17;;;;;;;3.16;100.00;94164.41;5071372;28;20200;-74
2023/01/01 03:54:49;;;;;;;13.90;12.80;;;;;;;3.20;100.00;94186.25;5082487;28;20219;-73
2023/01/01 03:57:30;;;;;;;14.57;13.10;;;;;;;3.10;100.00;94167.78;5093095;28;20240;-73
2023/01/01 04:00:10;;;;;;;12.43;11.33;;;;;;;3.00;100.00;94167.38;5089994;28;20330;-73
2023/01/01 04:02:41;;;;;;;16.53;12.17;;;;;;;2.99;100.00;94170.91;5091605;28;20177;-73
2023/01/01 04:05:11;;;;;;;18.00;12.30;;;;;;;3.00;100.00;94178.47;5090725;28;20247;-73
2023/01/01 04:07:37;;;;;;;14.17;12.83;;;;;;;3.02;100.00;94168.75;5091264;28;20197;-73
2023/01/01 04:10:15;;;;;;;14.17;12.80;;;;;;;3.10;100.00;94175.50;5091598;28;20244;-73
2023/01/01 04:12:53;;;;;;;14.53;13.27;;;;;;;2.96;100.00;94166.16;5090646;28;20662;-73
2023/01/01 04:15:23;;;;;;;14.80;13.50;;;;;;;3.10;100.00;94178.91;5090196;28;20254;-73
2023/01/01 04:17:49;;;;;;;14.70;13.30;;;;;;;3.05;100.00;94178.69;5090671;28;20177;-74
2023/01/01 04:20:15;;;;;;;13.27;12.27;;;;;;;3.17;100.00;94181.50;5091118;28;20221;-74
2023/01/01 04:22:40;;;;;;;14.30;12.33;;;;;;;2.99;100.00;94174.28;5090449;28;20210;-73
2023/01/01 04:25:07;;;;;;;14.80;13.40;;;;;;;3.05;100.00;94186.41;5090172;28;20263;-73
2023/01/01 04:27:32;;;;;;;14.83;13.23;;;;;;;3.09;100.00;94182.47;5090590;28;21339;-74
2023/01/01 04:29:58;;;;;;;18.80;14.90;;;;;;;3.08;100.00;94188.59;5090116;28;20225;-74
2023/01/01 04:32:24;;;;;;;16.20;14.60;;;;;;;3.04;100.00;94194.34;5091329;28;20239;-74
2023/01/01 04:34:49;;;;;;;16.70;14.87;;;;;;;3.03;100.00;94182.44;5091077;28;20223;-73
2023/01/01 04:37:15;;;;;;;16.63;15.03;;;;;;;2.92;100.00;94195.91;5091147;28;20193;-73
2023/01/01 04:39:40;;;;;;;18.53;15.93;;;;;;;2.93;100.00;94197.47;5090171;28;20231;-73
2023/01/01 04:42:06;;;;;;;16.47;15.00;;;;;;;2.93;100.00;94195.72;5089132;28;20185;-73
2023/01/01 04:44:31;;;;;;;15.47;14.17;;;;;;;2.77;100.00;94177.22;5089632;28;20228;-73
2023/01/01 04:46:57;;;;;;;15.10;13.67;;;;;;;2.77;100.00;94187.53;5090284;28;20193;-73
2023/01/01 04:49:22;;;;;;;14.30;13.20;;;;;;;2.76;100.00;94197.03;5089241;28;20288;-73
2023/01/01 04:51:48;;;;;;;14.23;13.03;;;;;;;2.79;100.00;94190.69;5089953;28;20185;-73
2023/01/01 04:54:13;;;;;;;13.77;12.57;;;;;;;2.83;100.00;94189.31;5090578;28;20232;-73
2023/01/01 04:56:38;;;;;;;16.00;14.50;;;;;;;2.75;100.00;94171.44;5089675;28;20244;-73
2023/01/01 04:59:04;;;;;;;15.47;14.00;;;;;;;2.81;100.00;94181.78;5090256;28;20228;-73
2023/01/01 05:01:29;;;;;;;17.63;15.70;;;;;;;2.89;100.00;94189.38;5088427;28;20193;-73
2023/01/01 05:03:56;;;;;;;19.13;16.30;;;;;;;2.79;100.00;94176.00;5089562;28;20220;-73
2023/01/01 05:06:22;;;;;;;20.00;16.53;;;;;;;2.84;100.00;94183.97;5089699;28;20172;-73
2023/01/01 05:08:49;;;;;;;17.17;15.50;;;;;;;2.78;100.00;94186.53;5089374;28;20185;-73
2023/01/01 05:11:21;;;;;;;19.17;17.13;;;;;;;2.81;100.00;94191.28;5091228;28;20189;-73
2023/01/01 05:13:49;;;;;;;19.53;16.10;;;;;;;2.79;100.00;94190.69;5089212;28;20197;-73
2023/01/01 05:16:20;;;;;;;16.77;15.07;;;;;;;2.71;100.00;94180.53;5088939;28;20218;-73
2023/01/01 05:18:46;;;;;;;22.27;16.10;;;;;;;2.75;100.00;94194.66;5089341;28;20192;-73
2023/01/01 05:21:15;;;;;;;17.87;15.47;;;;;;;2.81;100.00;94189.53;5090009;28;20199;-74
2023/01/01 05:23:40;;;;;;;20.33;16.03;;;;;;;2.76;100.00;94198.81;5090067;28;20204;-73
2023/01/01 05:26:09;;;;;;;19.43;15.53;;;;;;;2.74;100.00;94193.84;5089826;28;20235;-74
2023/01/01 05:28:34;;;;;;;18.57;16.40;;;;;;;2.72;100.00;94192.47;5089263;28;20180;-73
2023/01/01 05:31:04;;;;;;;20.83;18.63;;;;;;;2.74;100.00;94193.06;5090247;28;20252;-73
2023/01/01 05:33:30;;;;;;;22.30;18.23;;;;;;;2.71;100.00;94196.00;5088633;28;20185;-73
2023/01/01 05:35:55;;;;;;;19.87;17.20;;;;;;;2.67;100.00;94199.97;5090905;28;20785;-73
2023/01/01 05:38:20;;;;;;;19.33;17.33;;;;;;;2.76;100.00;94201.38;5104707;28;20820;-73
2023/01/01 05:40:46;;;;;;;19.37;17.37;;;;;;;2.78;100.00;94199.41;5089102;28;20222;-73
2023/01/01 05:43:11;;;;;;;20.10;16.80;;;;;;;2.79;100.00;94193.25;5089700;28;20196;-73
2023/01/01 05:45:36;;;;;;;23.47;17.27;;;;;;;2.78;100.00;94207.16;5087689;28;20212;-73
2023/01/01 05:48:03;;;;;;;19.67;17.77;;;;;;;2.75;100.00;94203.19;5089163;28;20196;-73
2023/01/01 05:50:28;;;;;;;20.17;16.53;;;;;;;3.00;100.00;94213.78;5088230;28;20228;-73
2023/01/01 05:52:54;;;;;;;16.83;15.23;;;;;;;2.95;100.00;94203.25;5089822;28;20177;-73
2023/01/01 05:55:19;;;;;;;17.30;15.60;;;;;;;2.85;100.00;94195.06;5089126;28;20239;-73
2023/01/01 05:57:45;;;;;;;17.93;16.00;;;;;;;2.76;100.00;94209.13;5088687;28;20185;-73
2023/01/01 06:00:11;;;;;;;19.40;16.47;;;;;;;2.65;100.00;94200.16;5089335;28;20877;-73
2023/01/01 06:02:36;;;;;;;19.20;15.30;;;;;;;2.71;100.00;94208.91;5088741;28;20204;-73
2023/01/01 06:05:01;;;;;;;17.13;15.37;;;;;;;2.78;100.00;94209.72;5090754;28;20231;-73
2023/01/01 06:07:27;;;;;;;23.50;16.57;;;;;;;2.64;100.00;94205.50;5089380;28;20207;-73
2023/01/01 06:09:52;;;;;;;21.47;17.20;;;;;;;2.68;100.00;94217.81;5092978;28;20212;-73
2023/01/01 06:12:18;;;;;;;23.37;18.00;;;;;;;2.70;100.00;94197.00;5092825;28;20185;-73
2023/01/01 06:14:43;;;;;;;21.67;16.33;;;;;;;2.77;100.00;94190.09;5091553;28;20216;-73
2023/01/01 06:17:08;;;;;;;19.93;17.00;;;;;;;2.72;100.00;94195.84;5093870;28;20185;-73
2023/01/01 06:19:34;;;;;;;21.37;18.10;;;;;;;2.73;100.00;94194.03;5091811;28;20251;-73
2023/01/01 06:21:59;;;;;;;17.83;15.33;;;;;;;2.69;100.00;94188.47;5093714;28;20201;-73
2023/01/01 06:24:24;;;;;;;19.77;16.33;;;;;;;2.83;100.00;94212.53;5091236;28;20225;-73
2023/01/01 06:26:50;;;;;;;20.67;15.50;;;;;;;2.90;100.00;94208.19;5092865;28;20192;-73
2023/01/01 06:29:15;;;;;;;20.53;15.63;;;;;;;3.00;100.00;94204.25;5091866;28;20225;-73
2023/01/01 06:31:40;;;;;;;18.87;16.13;;;;;;;3.06;100.00;94215.59;5092515;28;20196;-73
2023/01/01 06:34:06;;;;;;;20.90;16.23;;;;;;;2.77;100.00;94169.47;5093297;28;20235;-73
2023/01/01 06:36:31;;;;;;;35.97;23.53;;;;;;;3.20;100.00;94222.41;5092481;28;20181;-73
2023/01/01 06:39:00;;;;;;;31.43;23.47;;;;;;;3.30;100.00;94231.34;5092919;28;20192;-73
2023/01/01 06:41:27;;;;;;;28.13;21.17;;;;;;;3.39;100.00;94239.72;5090835;28;20169;-73
2023/01/01 06:43:54;;;;;;;27.23;19.60;;;;;;;3.33;100.00;94235.34;5091281;28;20208;-73
2023/01/01 06:46:31;;;;;;;28.83;21.57;;;;;;;3.35;100.00;94232.56;5090157;28;20185;-73
2023/01/01 06:48:59;;;;;;;29.50;20.03;;;;;;;3.33;100.00;94237.94;5092551;28;20172;-73
2023/01/01 06:51:30;;;;;;;33.37;22.97;;;;;;;3.40;100.00;94241.31;5092266;28;20233;-74
2023/01/01 06:54:00;;;;;;;28.97;21.90;;;;;;;3.48;100.00;94246.28;5091746;28;20226;-73
2023/01/01 06:56:26;;;;;;;36.23;21.13;;;;;;;3.48;100.00;94235.97;5092304;28;20223;-73
2023/01/01 06:58:52;;;;;;;35.10;22.83;;;;;;;3.65;100.00;94257.84;5091857;28;20185;-73
2023/01/01 07:01:20;;;;;;;32.23;22.13;;;;;;;3.64;100.00;94256.28;5091722;28;20189;-73
2023/01/01 07:03:51;;;;;;;31.70;22.73;;;;;;;3.75;100.00;94255.66;5091289;28;20277;-73
2023/01/01 07:06:16;;;;;;;42.13;25.63;;;;;;;3.85;100.00;94253.50;5091596;28;20202;-74
2023/01/01 07:08:41;;;;;;;42.87;24.83;;;;;;;3.94;100.00;94257.47;5092555;28;20181;-73
2023/01/01 07:11:07;;;;;;;33.47;23.63;;;;;;;4.07;100.00;94260.09;5072890;28;20213;-73
2023/01/01 07:13:32;;;;;;;42.47;25.50;;;;;;;4.17;100.00;94259.69;5071795;28;20248;-73
2023/01/01 07:15:58;;;;;;;36.30;25.33;;;;;;;4.32;100.00;94260.28;5072323;28;20243;-73
2023/01/01 07:18:24;;;;;;;34.43;22.03;;;;;;;4.38;100.00;94265.44;5072266;28;20197;-73
2023/01/01 07:20:58;;;;;;;40.47;25.57;;;;;;;4.43;100.00;94265.66;5087877;28;20224;-73
2023/01/01 07:23:25;;;;;;;28.33;21.23;;;;;;;4.48;100.00;94265.81;5091785;28;20207;-73
2023/01/01 07:25:51;;;;;;;27.33;20.93;;;;;;;4.54;100.00;94265.03;5090963;28;20238;-73
2023/01/01 07:28:18;;;;;;;27.43;21.10;;;;;;;4.63;100.00;94258.66;5092244;28;20191;-73
2023/01/01 07:30:43;;;;;;;30.57;23.23;;;;;;;4.69;100.00;94249.28;5093371;28;20212;-73
2023/01/01 07:33:15;;;;;;;25.63;19.53;;;;;;;4.84;100.00;94260.22;5090608;28;20196;-74
2023/01/01 07:35:40;;;;;;;31.90;21.00;;;;;;;4.92;100.00;94254.78;5091003;28;20209;-73
2023/01/01 07:38:05;;;;;;;30.73;21.87;;;;;;;5.04;100.00;94257.53;5092508;28;21473;-73
2023/01/01 07:40:31;;;;;;;31.10;21.47;;;;;;;5.17;100.00;94257.50;5090968;28;20228;-73
2023/01/01 07:42:56;;;;;;;29.57;20.10;;;;;;;5.50;100.00;94260.72;5091976;28;20185;-73
2023/01/01 07:45:23;;;;;;;36.83;23.53;;;;;;;5.51;100.00;94257.16;5092427;28;20228;-73
2023/01/01 07:47:52;;;;;;;29.47;22.27;;;;;;;5.60;100.00;94258.50;5091369;28;20185;-73
2023/01/01 07:50:18;;;;;;;40.07;28.17;;;;;;;5.56;100.00;94258.09;5092062;28;20229;-73
2023/01/01 07:52:43;;;;;;;40.90;29.30;;;;;;;5.55;100.00;94250.56;5088772;28;20722;-73
2023/01/01 07:55:16;;;;;;;53.87;34.27;;;;;;;5.53;100.00;94260.31;5090883;28;20240;-73
2023/01/01 07:57:42;;;;;;;45.80;31.00;;;;;;;5.75;100.00;94257.22;5090762;28;20841;-73
2023/01/01 08:00:11;;;;;;;60.33;33.90;;;;;;;5.89;100.00;94245.00;5090431;28;20235;-72
2023/01/01 08:02:36;;;;;;;68.63;40.07;;;;;;;6.01;99.19;94251.06;5089806;28;20215;-73
2023/01/01 08:05:02;;;;;;;69.50;40.77;;;;;;;6.16;98.31;94264.56;5091079;28;20221;-73
2023/01/01 08:07:28;;;;;;;62.47;38.17;;;;;;;6.14;98.21;94258.78;5091877;28;20204;-73
2023/01/01 08:09:53;;;;;;;76.07;43.70;;;;;;;6.10;99.36;94273.19;5091282;28;20311;-73
2023/01/01 08:12:18;;;;;;;83.50;47.00;;;;;;;6.34;98.38;94278.38;5090665;28;20215;-73
2023/01/01 08:14:44;;;;;;;84.87;44.13;;;;;;;6.25;98.05;94274.47;5091474;28;20228;-73
2023/01/01 08:17:09;;;;;;;84.83;45.33;;;;;;;6.00;99.46;94271.03;5091069;28;20226;-73
2023/01/01 08:19:35;;;;;;;79.73;46.40;;;;;;;5.98;100.00;94265.25;5091801;28;20224;-74
2023/01/01 08:22:00;;;;;;;81.67;44.17;;;;;;;5.92;100.00;94280.84;5091036;28;20177;-73
2023/01/01 08:24:25;;;;;;;76.57;41.93;;;;;;;6.08;100.00;94282.94;5090959;28;20205;-73
2023/01/01 08:26:51;;;;;;;78.07;43.40;;;;;;;6.10;100.00;94291.31;5090308;28;20248;-74
2023/01/01 08:29:17;;;;;;;78.67;43.40;;;;;;;6.40;99.51;94289.69;5090310;28;20251;-73
2023/01/01 08:31:42;;;;;;;74.73;41.53;;;;;;;6.26;99.65;94290.78;5089110;28;20196;-73
2023/01/01 08:34:07;;;;;;;77.53;42.20;;;;;;;6.56;98.63;94289.16;5091751;28;20228;-73
2023/01/01 08:36:33;;;;;;;60.87;36.97;;;;;;;6.59;97.31;94288.72;5090097;28;20181;-73
2023/01/01 08:38:59;;;;;;;61.50;38.13;;;;;;;6.46;97.40;94284.44;5089687;28;20184;-73
2023/01/01 08:41:24;;;;;;;76.80;42.97;;;;;;;6.56;97.85;94291.75;5090967;28;20215;-73
2023/01/01 08:43:49;;;;;;;86.77;48.30;;;;;;;6.52;97.73;94293.97;5089949;28;20212;-73
2023/01/01 08:46:15;;;;;;;95.43;50.83;;;;;;;6.25;98.88;94278.84;5090088;28;20197;-73
2023/01/01 08:48:40;;;;;;;92.40;50.23;;;;;;;6.39;98.41;94285.50;5089298;28;20650;-73
2023/01/01 08:51:06;;;;;;;98.60;52.40;;;;;;;6.21;99.43;94282.88;5089201;28;20296;-73
2023/01/01 08:53:32;;;;;;;98.43;51.73;;;;;;;6.64;97.50;94293.28;5090121;28;20200;-73
2023/01/01 08:56:03;;;;;;;94.40;51.43;;;;;;;6.51;97.04;94289.00;5089283;28;20244;-73
2023/01/01 08:58:29;;;;;;;88.83;49.30;;;;;;;6.50;96.88;94280.44;5089734;28;20181;-73
2023/01/01 09:00:55;;;;;;;97.47;50.00;;;;;;;6.31;97.93;94275.41;5089247;28;20231;-73
2023/01/01 09:03:21;;;;;;;92.60;49.20;;;;;;;6.54;97.60;94284.19;5088428;28;20212;-73
2023/01/01 09:05:46;;;;;;;91.20;48.77;;;;;;;6.45;97.36;94274.28;5089136;28;20236;-73
2023/01/01 09:08:13;;;;;;;93.57;50.73;;;;;;;6.48;97.37;94266.88;5091156;28;20220;-73
2023/01/01 09:10:38;;;;;;;82.30;44.80;;;;;;;6.56;97.28;94273.59;5088944;28;20234;-74
2023/01/01 09:13:04;;;;;;;76.70;43.47;;;;;;;6.72;96.06;94267.06;5090902;28;20193;-73
2023/01/01 09:15:30;;;;;;;82.70;45.60;;;;;;;7.04;94.84;94278.91;5087732;28;20232;-73
2023/01/01 09:17:55;;;;;;;83.23;47.93;;;;;;;7.04;94.37;94274.53;5090024;28;20270;-73
2023/01/01 09:20:21;;;;;;;77.53;44.67;;;;;;;6.92;94.64;94250.28;5087663;28;20255;-74
2023/01/01 09:22:46;;;;;;;81.50;45.60;;;;;;;6.89;95.42;94255.91;5091178;28;20252;-73
2023/01/01 09:25:11;;;;;;;82.67;45.77;;;;;;;7.05;94.49;94260.53;5089197;28;20284;-73
2023/01/01 09:27:37;;;;;;;81.53;44.10;;;;;;;7.20;93.36;94247.97;5091046;28;20192;-73
2023/01/01 09:30:03;;;;;;;75.90;44.33;;;;;;;7.12;93.39;94240.47;5088586;28;20227;-73
2023/01/01 09:32:29;;;;;;;81.23;43.47;;;;;;;7.10;94.20;94245.09;5090912;28;20195;-73
2023/01/01 09:34:56;;;;;;;74.53;43.90;;;;;;;7.19;94.00;94248.97;5089315;28;20248;-73
2023/01/01 09:37:22;;;;;;;74.10;43.90;;;;;;;7.12;93.71;94237.88;5089490;28;20185;-74
2023/01/01 09:39:47;;;;;;;79.77;42.97;;;;;;;7.17;94.12;94243.22;5088333;28;20231;-73
2023/01/01 09:42:25;;;;;;;74.43;42.20;;;;;;;7.40;93.48;94242.53;5087922;28;20212;-74
2023/01/01 09:45:02;;;;;;;73.87;41.23;;;;;;;7.65;91.24;94244.03;5088136;28;20242;-73
2023/01/01 09:47:45;;;;;;;75.93;40.10;;;;;;;7.45;91.60;94235.69;5090266;28;20184;-74
2023/01/01 09:50:17;;;;;;;69.33;39.20;;;;;;;7.48;92.49;94240.44;5088852;28;20232;-73
2023/01/01 09:52:53;;;;;;;71.67;41.93;;;;;;;7.28;92.70;94231.31;5088334;28;20177;-74
2023/01/01 09:55:25;;;;;;;67.83;40.97;;;;;;;7.45;92.45;94234.88;5088607;28;20291;-74
2023/01/01 09:57:52;;;;;;;72.00;40.63;;;;;;;7.62;91.75;94230.66;5089540;28;20208;-74
2023/01/01 10:00:18;;;;;;;74.80;39.70;;;;;;;7.58;91.99;94227.69;5088397;28;20243;-74
2023/01/01 10:03:01;;;;;;;69.07;40.30;;;;;;;7.55;92.88;94224.75;5087992;28;20261;-73
2023/01/01 10:05:48;;;;;;;73.90;40.33;;;;;;;7.93;89.92;94233.03;5088106;28;20218;-73
2023/01/01 10:08:22;;;;;;;71.63;40.70;;;;;;;7.76;90.66;94234.66;5090225;28;20192;-73
2023/01/01 10:11:29;;;;;;;66.47;39.03;;;;;;;8.07;89.50;94234.41;5087843;28;20229;-74
2023/01/01 10:13:58;;;;;;;76.70;41.37;;;;;;;8.23;87.49;94222.59;5015406;28;20225;-73
2023/01/01 10:16:43;;;;;;;71.57;40.50;;;;;;;8.20;87.47;94229.78;5078966;28;20227;-73
2023/01/01 10:19:39;;;;;;;69.03;39.33;;;;;;;8.14;88.10;94235.91;5089586;28;20220;-73
2023/01/01 10:22:30;;;;;;;69.00;38.57;;;;;;;8.08;88.77;94222.97;5079775;28;20204;-74
2023/01/01 10:24:55;;;;;;;69.90;41.00;;;;;;;8.25;87.53;94233.59;5085894;28;20254;-73
2023/01/01 10:27:36;;;;;;;72.00;42.40;;;;;;;8.26;87.42;94229.94;5087563;28;20189;-74
2023/01/01 10:30:12;;;;;;;64.10;40.33;;;;;;;8.37;86.98;94218.75;5088466;28;20217;-73
2023/01/01 10:32:39;;;;;;;76.20;42.53;;;;;;;8.26;86.87;94222.16;5088497;28;20192;-73
2023/01/01 10:35:16;;;;;;;75.87;42.33;;;;;;;8.65;85.86;94222.28;5087230;28;20243;-73
2023/01/01 10:37:42;;;;;;;74.27;43.27;;;;;;;8.79;84.64;94221.03;5088191;28;20219;-73
2023/01/01 10:40:29;;;;;;;69.27;40.20;;;;;;;8.80;84.33;94214.81;5088450;28;20248;-73
2023/01/01 10:42:57;;;;;;;73.00;41.90;;;;;;;8.88;83.73;94213.66;5088641;28;20211;-73
2023/01/01 10:45:32;;;;;;;72.17;43.53;;;;;;;8.88;83.32;94205.84;5088604;28;20228;-73
2023/01/01 10:48:14;;;;;;;74.90;41.97;;;;;;;8.80;84.23;94203.59;5088132;28;20180;-73
2023/01/01 10:50:44;;;;;;;71.37;42.13;;;;;;;8.89;83.85;94197.00;5086272;28;20221;-73
2023/01/01 10:53:28;;;;;;;66.30;40.07;;;;;;;9.12;82.09;94196.97;5087974;28;20224;-73
2023/01/01 10:56:03;;;;;;;64.90;39.87;;;;;;;9.32;80.89;94186.94;5091496;28;20324;-72
2023/01/01 10:58:46;;;;;;;66.03;39.07;;;;;;;9.33;80.75;94191.13;5091803;28;20191;-74
2023/01/01 11:01:19;;;;;;;61.17;38.90;;;;;;;9.17;80.98;94189.25;5071623;28;20221;-74
2023/01/01 11:03:56;;;;;;;65.77;36.67;;;;;;;9.23;81.38;94188.34;5071153;28;20233;-73
2023/01/01 11:06:40;;;;;;;62.50;36.33;;;;;;;9.38;79.37;94181.59;5087375;28;20185;-74
2023/01/01 11:09:20;;;;;;;56.50;38.10;;;;;;;9.39;80.02;94185.78;5071291;28;20221;-75
2023/01/01 11:11:53;;;;;;;62.20;36.93;;;;;;;9.42;79.84;94185.31;5071447;28;20192;-74
2023/01/01 11:14:27;;;;;;;61.87;38.67;;;;;;;9.35;79.80;94170.84;5075978;28;20299;-74
2023/01/01 11:16:54;;;;;;;62.03;36.90;;;;;;;9.40;79.92;94173.56;5091890;28;20203;-74
2023/01/01 11:19:26;;;;;;;60.03;37.27;;;;;;;9.39;80.37;94172.75;5090055;28;20225;-74
2023/01/01 11:21:52;;;;;;;60.30;37.00;;;;;;;9.36;80.62;94162.00;5091611;28;20173;-74
2023/01/01 11:24:19;;;;;;;57.37;36.27;;;;;;;9.76;79.74;94167.91;5091721;28;20248;-74
2023/01/01 11:26:44;;;;;;;60.07;37.73;;;;;;;9.49;79.85;94166.94;5091846;28;20197;-75
2023/01/01 11:29:27;;;;;;;67.97;39.13;;;;;;;9.35;81.28;94165.63;5091038;28;20231;-75